Time;durP1;ratioP1;P1;durP2;ratioP2;P2;SDS_P1;SDS_P2;PMS_P1;PMS_P2;Temp;Humidity;BMP_temperature;BMP_pressure;BME280_temperature;BME280_humidity;BME280_pressure;Samples;Min_cycle;Max_cycle;Signal;HPM_P1;HPM_P2
2021/03/28 00:00:17;;;;;;;0.28;0.17;;;5.40;99.90;;;;;;4948127;28;20042;-88
2021/03/28 00:02:51;;;;;;;0.10;0.10;;;5.40;99.90;;;;;;4958787;28;20054;-87
2021/03/28 00:05:22;;;;;;;0.10;0.10;;;5.20;99.90;;;;;;4995436;28;20105;-88
2021/03/28 00:07:53;;;;;;;2.78;0.80;;;5.20;99.90;;;;;;4985838;28;20089;-88
2021/03/28 00:10:34;;;;;;;0.10;0.10;;;5.10;99.90;;;;;;4988479;28;20023;-87
2021/03/28 00:13:14;;;;;;;0.10;0.10;;;5.10;99.90;;;;;;4989925;28;20023;-88
2021/03/28 00:15:44;;;;;;;1.88;1.00;;;5.20;99.90;;;;;;4979640;28;20034;-88
2021/03/28 00:18:20;;;;;;;0.47;0.47;;;5.10;99.90;;;;;;4986271;28;20026;-88
2021/03/28 00:20:46;;;;;;;0.05;0.05;;;5.00;99.90;;;;;;5000357;28;20577;-88
2021/03/28 00:23:25;;;;;;;0.10;0.10;;;5.00;99.90;;;;;;4991090;28;20034;-88
2021/03/28 00:26:20;;;;;;;0.10;0.10;;;4.90;99.90;;;;;;4986403;28;20033;-88
2021/03/28 00:29:03;;;;;;;8.68;0.73;;;5.00;99.90;;;;;;4980048;28;20038;-87
2021/03/28 00:31:37;;;;;;;0.10;0.10;;;4.90;99.90;;;;;;4990519;28;20026;-86
2021/03/28 00:34:23;;;;;;;0.85;0.85;;;5.00;99.90;;;;;;4995365;28;20046;-87
2021/03/28 00:36:57;;;;;;;0.20;0.20;;;5.00;99.90;;;;;;4985273;28;20034;-88
2021/03/28 00:39:40;;;;;;;0.35;0.35;;;4.90;99.90;;;;;;5003031;28;20034;-87
2021/03/28 00:42:10;;;;;;;0.60;0.57;;;4.90;99.90;;;;;;4990133;28;20093;-88
2021/03/28 00:44:49;;;;;;;0.10;0.10;;;4.80;99.90;;;;;;4988721;28;20058;-88
2021/03/28 00:47:22;;;;;;;0.30;0.30;;;4.60;99.90;;;;;;4990474;28;20553;-88
2021/03/28 00:50:04;;;;;;;0.20;0.20;;;4.60;99.90;;;;;;4982390;28;20125;-87
2021/03/28 00:52:35;;;;;;;0.10;0.10;;;4.70;99.90;;;;;;4988744;28;20049;-87
2021/03/28 00:55:11;;;;;;;0.10;0.10;;;4.60;99.90;;;;;;4985536;28;20077;-87
2021/03/28 00:57:38;;;;;;;;;;;4.40;99.90;;;;;;4990155;28;20142;-87
2021/03/28 01:00:10;;;;;;;;;;;4.40;99.90;;;;;;4983321;28;20589;-87
2021/03/28 01:03:06;;;;;;;0.10;0.10;;;4.50;99.90;;;;;;4990330;28;20000;-88
2021/03/28 01:05:51;;;;;;;0.10;0.10;;;4.60;99.90;;;;;;4987417;28;20125;-88
2021/03/28 01:08:34;;;;;;;0.10;0.10;;;4.50;99.90;;;;;;4993563;28;20053;-88
2021/03/28 01:11:22;;;;;;;0.10;0.10;;;4.50;99.90;;;;;;4994929;28;20049;-88
2021/03/28 01:14:12;;;;;;;3.08;1.92;;;4.40;99.90;;;;;;4987403;28;20052;-87
2021/03/28 01:17:12;;;;;;;0.10;0.10;;;4.60;99.90;;;;;;4986055;28;20125;-88
2021/03/28 01:19:53;;;;;;;0.10;0.10;;;4.50;99.90;;;;;;4983606;28;20041;-88
2021/03/28 01:22:22;;;;;;;1.70;1.15;;;4.30;99.90;;;;;;4988389;28;20041;-87
2021/03/28 01:24:50;;;;;;;0.10;0.10;;;4.20;99.90;;;;;;4991178;28;20042;-87
2021/03/28 01:27:53;;;;;;;0.10;0.10;;;4.20;99.90;;;;;;4991159;28;20129;-88
2021/03/28 01:30:24;;;;;;;0.10;0.10;;;4.10;99.90;;;;;;4996096;28;20105;-88
2021/03/28 01:33:04;;;;;;;0.20;0.20;;;4.20;99.90;;;;;;4994719;28;20022;-88
2021/03/28 01:35:54;;;;;;;0.10;0.10;;;4.30;99.90;;;;;;4983278;28;20033;-88
2021/03/28 01:38:32;;;;;;;0.63;0.63;;;4.10;99.90;;;;;;4986968;28;20029;-88
2021/03/28 01:41:04;;;;;;;0.50;0.50;;;4.10;99.90;;;;;;4989431;28;20580;-89
2021/03/28 01:43:50;;;;;;;0.10;0.10;;;4.10;99.90;;;;;;4997916;28;20034;-88
2021/03/28 01:46:22;;;;;;;0.20;0.20;;;4.00;99.90;;;;;;4989218;28;20034;-89
2021/03/28 01:48:56;;;;;;;0.35;0.35;;;3.90;99.90;;;;;;4980046;28;20030;-89
2021/03/28 01:51:30;;;;;;;0.32;0.32;;;4.00;99.90;;;;;;4990140;28;20096;-89
2021/03/28 01:54:44;;;;;;;18.10;1.40;;;3.80;99.90;;;;;;4989893;28;20038;-88
2021/03/28 01:57:24;;;;;;;0.10;0.10;;;3.90;99.90;;;;;;4973119;28;20034;-88
2021/03/28 02:00:08;;;;;;;0.10;0.10;;;3.80;99.90;;;;;;4976429;28;20065;-88
2021/03/28 02:03:04;;;;;;;0.30;0.30;;;3.80;99.90;;;;;;4985218;28;20105;-90
2021/03/28 02:05:29;;;;;;;0.17;0.17;;;3.80;99.90;;;;;;4984646;28;20038;-88
2021/03/28 02:08:10;;;;;;;0.20;0.20;;;3.60;99.90;;;;;;4987723;28;20053;-89
2021/03/28 02:10:42;;;;;;;0.38;0.38;;;3.60;99.90;;;;;;4991457;28;20157;-90
2021/03/28 02:13:26;;;;;;;0.47;0.45;;;3.70;99.90;;;;;;4989115;28;20398;-89
2021/03/28 02:16:11;;;;;;;0.15;0.15;;;3.50;99.90;;;;;;4992684;28;20816;-89
2021/03/28 02:18:55;;;;;;;0.20;0.20;;;3.60;99.90;;;;;;4987156;28;20497;-88
2021/03/28 02:21:47;;;;;;;1.25;0.35;;;3.60;99.90;;;;;;4990844;28;20045;-89
2021/03/28 02:24:27;;;;;;;0.20;0.20;;;3.50;99.90;;;;;;4985350;28;20383;-89
2021/03/28 02:27:14;;;;;;;0.10;0.10;;;3.60;99.90;;;;;;4991469;28;20101;-89
2021/03/28 02:30:24;;;;;;;0.10;0.10;;;3.40;99.90;;;;;;4992856;28;20048;-88
2021/03/28 02:33:08;;;;;;;0.65;0.65;;;3.60;99.90;;;;;;4984950;28;20101;-88
2021/03/28 02:35:51;;;;;;;0.30;0.30;;;3.50;99.90;;;;;;4984537;28;20030;-88
2021/03/28 02:38:47;;;;;;;0.77;0.60;;;3.50;99.90;;;;;;4988414;28;20618;-88
2021/03/28 02:41:48;;;;;;;0.10;0.10;;;3.50;99.90;;;;;;4988601;28;20499;-89
2021/03/28 02:44:31;;;;;;;0.25;0.25;;;3.30;99.90;;;;;;4963411;28;20133;-89
2021/03/28 02:47:09;;;;;;;0.10;0.10;;;3.40;99.90;;;;;;4987844;28;20049;-89
2021/03/28 02:49:38;;;;;;;0.20;0.20;;;3.30;99.90;;;;;;4995245;28;20750;-90
2021/03/28 02:52:24;;;;;;;0.28;0.28;;;3.20;99.90;;;;;;4989260;28;20487;-89
2021/03/28 02:55:08;;;;;;;2.92;0.50;;;3.10;99.90;;;;;;4992016;28;20038;-89
2021/03/28 02:57:52;;;;;;;0.30;0.30;;;3.30;99.90;;;;;;4980691;28;20023;-89
2021/03/28 03:00:43;;;;;;;0.20;0.20;;;3.00;99.90;;;;;;4981499;28;20057;-90
2021/03/28 03:03:30;;;;;;;0.20;0.20;;;3.20;99.90;;;;;;4987762;28;20081;-90
2021/03/28 03:06:23;;;;;;;0.50;0.50;;;3.00;99.90;;;;;;4987409;28;20037;-88
2021/03/28 03:09:00;;;;;;;0.20;0.20;;;2.90;99.90;;;;;;4986693;28;20030;-89
2021/03/28 03:11:46;;;;;;;0.30;0.30;;;2.90;99.90;;;;;;4994153;28;20023;-88
2021/03/28 03:14:16;;;;;;;0.10;0.10;;;3.00;99.90;;;;;;4982545;28;20038;-88
2021/03/28 03:17:09;;;;;;;0.10;0.10;;;2.80;99.90;;;;;;4982454;28;20112;-89
2021/03/28 03:20:12;;;;;;;0.10;0.10;;;2.80;99.90;;;;;;4987366;28;20023;-88
2021/03/28 03:22:56;;;;;;;0.10;0.10;;;2.90;99.90;;;;;;4990577;28;20030;-89
2021/03/28 03:25:56;;;;;;;0.10;0.10;;;2.90;99.90;;;;;;4992607;28;20034;-89
2021/03/28 03:29:05;;;;;;;0.20;0.20;;;2.80;99.90;;;;;;4988323;28;20050;-88
2021/03/28 03:32:05;;;;;;;0.10;0.10;;;2.80;99.90;;;;;;4967918;28;20030;-88
2021/03/28 03:34:45;;;;;;;0.10;0.10;;;2.70;99.90;;;;;;4986350;28;20089;-89
2021/03/28 03:37:22;;;;;;;0.10;0.10;;;2.60;99.90;;;;;;4983024;28;20026;-89
2021/03/28 03:40:13;;;;;;;0.10;0.10;;;2.60;99.90;;;;;;4989906;28;20113;-88
2021/03/28 03:43:12;;;;;;;0.10;0.10;;;2.40;99.90;;;;;;4987449;28;20030;-90
2021/03/28 03:46:02;;;;;;;0.10;0.10;;;2.50;99.90;;;;;;4992923;28;20418;-91
2021/03/28 03:48:58;;;;;;;1.45;0.63;;;2.40;99.90;;;;;;4985179;28;20033;-89
2021/03/28 03:51:56;;;;;;;0.20;0.20;;;2.30;99.90;;;;;;5005441;28;20407;-90
2021/03/28 03:54:45;;;;;;;0.20;0.20;;;2.40;99.90;;;;;;4995827;28;20056;-89
2021/03/28 03:57:27;;;;;;;0.25;0.25;;;2.10;99.90;;;;;;4994076;28;20044;-89
2021/03/28 04:00:01;;;;;;;0.10;0.10;;;2.30;99.90;;;;;;4994322;28;20026;-88
2021/03/28 04:02:32;;;;;;;0.10;0.10;;;2.60;99.90;;;;;;5003101;28;20049;-87
2021/03/28 04:05:52;;;;;;;0.20;0.20;;;2.60;99.90;;;;;;4989741;28;20034;-88
2021/03/28 04:08:42;;;;;;;0.20;0.20;;;2.50;99.90;;;;;;4989847;28;20037;-88
2021/03/28 04:11:42;;;;;;;0.10;0.10;;;2.30;99.90;;;;;;4996035;28;20026;-87
2021/03/28 04:14:23;;;;;;;0.10;0.10;;;2.50;99.90;;;;;;4978516;28;20030;-88
2021/03/28 04:17:21;;;;;;;1.00;0.98;;;2.50;99.90;;;;;;4987076;28;20042;-88
2021/03/28 04:20:11;;;;;;;0.10;0.10;;;2.40;99.90;;;;;;4955667;28;20121;-87
2021/03/28 04:22:39;;;;;;;0.10;0.10;;;2.40;99.90;;;;;;4953371;28;20213;-88
2021/03/28 04:25:20;;;;;;;0.30;0.30;;;2.30;99.90;;;;;;4967970;28;20047;-88
2021/03/28 04:28:19;;;;;;;0.30;0.30;;;2.30;99.90;;;;;;4963570;28;20056;-88
2021/03/28 04:30:57;;;;;;;0.20;0.20;;;2.20;99.90;;;;;;4965865;28;20126;-89
2021/03/28 04:33:35;;;;;;;0.10;0.10;;;2.30;99.90;;;;;;4952646;28;20035;-88
2021/03/28 04:36:14;;;;;;;0.20;0.20;;;2.30;99.90;;;;;;4952932;28;20022;-88
2021/03/28 04:39:01;;;;;;;0.10;0.10;;;2.50;99.90;;;;;;4967587;28;20126;-87
2021/03/28 04:41:50;;;;;;;0.75;0.75;;;2.30;99.90;;;;;;4969016;28;20581;-88
2021/03/28 04:44:53;;;;;;;0.10;0.10;;;2.40;99.90;;;;;;4967528;28;20078;-88
2021/03/28 04:48:10;;;;;;;0.10;0.10;;;2.40;99.90;;;;;;4960747;28;20054;-89
2021/03/28 04:50:44;;;;;;;0.50;0.50;;;2.40;99.90;;;;;;4961429;28;20130;-88
2021/03/28 04:53:37;;;;;;;0.13;0.13;;;2.20;99.90;;;;;;4968512;28;20023;-89
2021/03/28 04:56:37;;;;;;;0.40;0.40;;;2.40;99.90;;;;;;4968537;28;20053;-89
2021/03/28 04:59:21;;;;;;;0.10;0.10;;;2.20;99.90;;;;;;4989222;28;20862;-88
2021/03/28 05:02:16;;;;;;;0.43;0.43;;;2.00;99.90;;;;;;4990090;28;20042;-88
2021/03/28 05:05:12;;;;;;;0.10;0.10;;;2.00;99.90;;;;;;4961971;28;20850;-89
2021/03/28 05:07:57;;;;;;;0.20;0.20;;;2.20;99.90;;;;;;4962814;28;20106;-89
2021/03/28 05:10:37;;;;;;;3.97;1.75;;;2.10;99.90;;;;;;4957142;28;20031;-89
2021/03/28 05:13:24;;;;;;;0.30;0.30;;;2.00;99.90;;;;;;4956175;28;20035;-89
2021/03/28 05:16:08;;;;;;;0.30;0.30;;;1.90;99.90;;;;;;4958242;28;20178;-88
2021/03/28 05:18:58;;;;;;;0.30;0.30;;;1.90;99.90;;;;;;4965873;28;20109;-89
2021/03/28 05:21:53;;;;;;;0.10;0.10;;;1.90;99.90;;;;;;4962854;28;20066;-89
2021/03/28 05:24:41;;;;;;;0.10;0.10;;;1.80;99.90;;;;;;4948616;29;20110;-89
2021/03/28 05:27:16;;;;;;;0.20;0.20;;;1.80;99.90;;;;;;4965413;28;20031;-88
2021/03/28 05:29:41;;;;;;;0.10;0.10;;;1.90;99.90;;;;;;4948705;28;20424;-88
2021/03/28 05:32:32;;;;;;;0.32;0.32;;;1.80;99.90;;;;;;4962512;28;20046;-89
2021/03/28 05:35:17;;;;;;;0.20;0.20;;;1.90;99.90;;;;;;4962740;28;20050;-88
2021/03/28 05:38:01;;;;;;;0.20;0.20;;;1.70;99.90;;;;;;4965459;28;20076;-89
2021/03/28 05:41:09;;;;;;;0.10;0.10;;;1.70;99.90;;;;;;4951500;28;20026;-88
2021/03/28 05:43:53;;;;;;;0.10;0.10;;;1.70;99.90;;;;;;4987960;28;20026;-88
2021/03/28 05:46:57;;;;;;;0.40;0.40;;;1.60;99.90;;;;;;4979069;28;20026;-87
2021/03/28 05:49:53;;;;;;;0.70;0.70;;;1.70;99.90;;;;;;4963492;28;20916;-89
2021/03/28 05:53:02;;;;;;;0.20;0.20;;;1.80;99.90;;;;;;4951278;28;20023;-88
2021/03/28 05:55:40;;;;;;;0.20;0.20;;;2.00;99.90;;;;;;4967340;28;20643;-89
2021/03/28 05:58:24;;;;;;;1.38;1.27;;;2.40;99.90;;;;;;4967067;28;20031;-89
2021/03/28 06:01:06;;;;;;;0.10;0.10;;;2.80;99.90;;;;;;4960532;28;20078;-90
2021/03/28 06:04:03;;;;;;;0.30;0.30;;;3.00;99.90;;;;;;4967318;28;20058;-89
2021/03/28 06:07:02;;;;;;;0.30;0.30;;;3.30;99.90;;;;;;4951683;28;20065;-91
2021/03/28 06:09:36;;;;;;;0.15;0.15;;;3.50;99.90;;;;;;4963503;28;20053;-91
2021/03/28 06:12:42;;;;;;;0.10;0.10;;;3.80;99.90;;;;;;4962350;28;20180;-92
2021/03/28 06:15:35;;;;;;;0.10;0.10;;;4.00;99.90;;;;;;4965531;28;20137;-91
2021/03/28 06:18:19;;;;;;;0.20;0.20;;;4.30;99.90;;;;;;4953403;28;20039;-91
2021/03/28 06:21:07;;;;;;;0.10;0.10;;;4.60;99.90;;;;;;4960817;28;20038;-91
2021/03/28 06:24:09;;;;;;;0.10;0.10;;;4.90;99.90;;;;;;4966628;28;20030;-91
2021/03/28 06:27:23;;;;;;;0.70;0.57;;;5.10;99.90;;;;;;4979430;28;20034;-91
2021/03/28 06:30:28;;;;;;;0.10;0.10;;;5.40;99.90;;;;;;4984776;28;20038;-91
2021/03/28 06:33:12;;;;;;;0.10;0.10;;;5.70;99.90;;;;;;4977454;28;20038;-92
2021/03/28 06:35:59;;;;;;;0.10;0.10;;;6.00;99.90;;;;;;4985962;28;20030;-91
2021/03/28 06:38:43;;;;;;;;;;;6.20;99.90;;;;;;4990608;28;20577;-91
2021/03/28 06:41:18;;;;;;;0.10;0.10;;;6.50;99.90;;;;;;4980074;28;19953;-91
2021/03/28 06:44:03;;;;;;;0.05;0.05;;;6.60;99.90;;;;;;4981155;28;20038;-90
2021/03/28 06:46:35;;;;;;;0.40;0.40;;;6.60;99.90;;;;;;4985504;28;20499;-90
2021/03/28 06:49:38;;;;;;;0.10;0.10;;;6.80;99.90;;;;;;4989128;28;20033;-91
2021/03/28 06:52:31;;;;;;;0.00;0.00;;;7.10;99.90;;;;;;4980741;28;20141;-89
2021/03/28 06:55:21;;;;;;;0.38;0.38;;;7.20;99.90;;;;;;4988365;28;20125;-87
2021/03/28 06:58:15;;;;;;;0.20;0.20;;;7.10;99.90;;;;;;4987151;28;20120;-88
2021/03/28 07:00:52;;;;;;;0.10;0.10;;;7.60;99.90;;;;;;4986609;28;20089;-88
2021/03/28 07:03:44;;;;;;;0.10;0.10;;;8.10;99.90;;;;;;4989524;28;20041;-88
2021/03/28 07:06:23;;;;;;;0.15;0.15;;;7.90;99.90;;;;;;4975374;28;20057;-92
2021/03/28 07:09:17;;;;;;;0.08;0.08;;;8.30;99.90;;;;;;4983563;28;20515;-91
2021/03/28 07:11:42;;;;;;;0.32;0.32;;;8.50;99.90;;;;;;4985209;28;20036;-92
2021/03/28 07:14:40;;;;;;;0.15;0.15;;;8.50;99.90;;;;;;4993675;28;20472;-89
2021/03/28 07:17:38;;;;;;;0.00;0.00;;;8.70;99.90;;;;;;4985817;28;20055;-90
2021/03/28 07:20:30;;;;;;;0.00;0.00;;;9.10;99.90;;;;;;4977391;28;20054;-91
2021/03/28 07:23:34;;;;;;;0.05;0.05;;;9.40;99.90;;;;;;4987044;28;20045;-91
2021/03/28 07:26:05;;;;;;;0.68;0.68;;;9.40;99.90;;;;;;4952568;28;20054;-91
2021/03/28 07:28:52;;;;;;;0.32;0.32;;;9.40;99.90;;;;;;4951553;28;20114;-92
2021/03/28 07:31:59;;;;;;;0.03;0.03;;;9.50;99.90;;;;;;4957611;28;20053;-92
2021/03/28 07:35:02;;;;;;;0.20;0.20;;;9.90;99.90;;;;;;4918282;28;20039;-92
2021/03/28 07:37:52;;;;;;;1.00;0.90;;;10.70;99.90;;;;;;4934657;29;20123;-90
2021/03/28 07:40:41;;;;;;;1.23;0.85;;;10.60;99.90;;;;;;4950567;29;20518;-91
2021/03/28 07:43:39;;;;;;;0.32;0.32;;;11.00;99.90;;;;;;4952370;28;20043;-92
2021/03/28 07:46:12;;;;;;;0.10;0.10;;;11.60;99.90;;;;;;4947905;28;20035;-91
2021/03/28 07:49:15;;;;;;;0.50;0.50;;;12.20;99.90;;;;;;4951857;28;20722;-91
2021/03/28 07:51:55;;;;;;;0.80;0.52;;;12.10;99.90;;;;;;4957403;28;20093;-90
2021/03/28 07:54:24;;;;;;;0.10;0.10;;;12.00;99.90;;;;;;4930945;28;20085;-92
2021/03/28 07:57:25;;;;;;;0.10;0.10;;;12.90;99.90;;;;;;4981404;28;20400;-91
2021/03/28 08:00:21;;;;;;;0.25;0.25;;;13.00;99.90;;;;;;4995001;28;20475;-91
2021/03/28 08:02:50;;;;;;;;;;;13.10;99.90;;;;;;4990176;28;20041;-90
2021/03/28 08:05:53;;;;;;;0.10;0.10;;;14.00;99.90;;;;;;5000454;28;19909;-90
2021/03/28 08:08:30;;;;;;;0.50;0.50;;;13.30;99.90;;;;;;4991426;28;20030;-90
2021/03/28 08:11:46;;;;;;;0.10;0.10;;;13.80;99.90;;;;;;5005040;28;20034;-91
2021/03/28 08:14:39;;;;;;;0.35;0.35;;;14.80;99.90;;;;;;4995734;28;20156;-91
2021/03/28 08:17:15;;;;;;;0.17;0.17;;;14.70;99.90;;;;;;4999333;28;20454;-92
2021/03/28 08:20:02;;;;;;;0.10;0.10;;;15.00;99.90;;;;;;4996412;28;20025;-92
2021/03/28 08:22:55;;;;;;;0.30;0.30;;;15.60;99.90;;;;;;4998239;28;20022;-91
2021/03/28 08:25:40;;;;;;;0.00;0.00;;;15.40;99.90;;;;;;5003398;28;20023;-92
2021/03/28 08:28:39;;;;;;;0.10;0.10;;;16.50;99.90;;;;;;4993185;28;20026;-91
2021/03/28 08:31:13;;;;;;;0.10;0.10;;;17.50;99.90;;;;;;4995073;28;20510;-90
2021/03/28 08:33:42;;;;;;;0.20;0.20;;;18.10;99.90;;;;;;4999203;28;20185;-91
2021/03/28 08:36:52;;;;;;;3.08;1.10;;;18.30;99.90;;;;;;5001849;28;20419;-90
2021/03/28 08:39:53;;;;;;;1.48;0.75;;;18.20;99.90;;;;;;4999051;28;20018;-90
2021/03/28 08:42:47;;;;;;;0.03;0.03;;;21.40;99.90;;;;;;4993678;28;20041;-91
2021/03/28 08:45:51;;;;;;;0.20;0.20;;;18.50;99.90;;;;;;5000701;28;20041;-90
2021/03/28 08:48:36;;;;;;;0.10;0.10;;;19.30;99.90;;;;;;5000453;28;20453;-90
2021/03/28 08:51:11;;;;;;;0.93;0.47;;;19.30;99.90;;;;;;4996358;28;20084;-90
2021/03/28 08:54:07;;;;;;;0.35;0.35;;;19.50;99.90;;;;;;5004685;28;20417;-91
2021/03/28 08:56:59;;;;;;;0.10;0.10;;;18.60;99.90;;;;;;4994353;28;20526;-90
2021/03/28 08:59:38;;;;;;;0.10;0.10;;;19.00;99.90;;;;;;4995105;28;20617;-90
2021/03/28 09:02:06;;;;;;;0.68;0.68;;;21.00;99.90;;;;;;5002853;28;20491;-90
2021/03/28 09:04:46;;;;;;;0.40;0.40;;;20.10;99.90;;;;;;4988753;28;20032;-91
2021/03/28 09:07:36;;;;;;;0.65;0.65;;;20.60;99.90;;;;;;4997092;28;20084;-91
2021/03/28 09:10:23;;;;;;;0.10;0.10;;;19.70;99.90;;;;;;4989795;28;20034;-90
2021/03/28 09:12:56;;;;;;;0.57;0.57;;;20.30;99.90;;;;;;4999845;28;20029;-91
2021/03/28 09:15:48;;;;;;;1.48;0.80;;;20.60;99.90;;;;;;4987620;28;20591;-92
2021/03/28 09:18:46;;;;;;;1.20;0.50;;;20.80;99.90;;;;;;4984469;28;20045;-91
2021/03/28 09:21:53;;;;;;;0.00;0.00;;;21.60;99.90;;;;;;4985507;28;20038;-92
2021/03/28 09:24:45;;;;;;;1.13;0.40;;;22.10;99.40;;;;;;4974019;28;20035;-92
2021/03/28 09:27:31;;;;;;;0.10;0.10;;;21.60;99.90;;;;;;4979949;28;20050;-90
2021/03/28 09:30:16;;;;;;;0.10;0.10;;;23.30;97.40;;;;;;4982064;28;20678;-92
2021/03/28 09:33:20;;;;;;;0.10;0.10;;;24.60;93.10;;;;;;4988215;28;20023;-92
2021/03/28 09:36:10;;;;;;;0.40;0.40;;;25.50;94.00;;;;;;4985512;28;20027;-91
2021/03/28 09:38:52;;;;;;;0.10;0.10;;;22.90;93.80;;;;;;4977409;28;20037;-92
2021/03/28 09:41:21;;;;;;;0.10;0.10;;;25.10;90.00;;;;;;4980389;28;20037;-91
2021/03/28 09:44:04;;;;;;;0.05;0.05;;;27.50;84.50;;;;;;4989029;28;20079;-92
2021/03/28 09:46:51;;;;;;;0.52;0.52;;;28.60;82.10;;;;;;5000675;28;20022;-91
2021/03/28 09:49:41;;;;;;;0.17;0.17;;;27.20;88.60;;;;;;4987398;28;20034;-92
2021/03/28 09:52:36;;;;;;;0.10;0.10;;;26.40;85.70;;;;;;4986596;28;20027;-92
2021/03/28 09:55:39;;;;;;;0.55;0.50;;;24.00;91.60;;;;;;4991074;28;20558;-91
2021/03/28 09:59:03;;;;;;;6.28;0.70;;;27.20;86.90;;;;;;4989071;28;20430;-91
2021/03/28 10:01:48;;;;;;;0.75;0.20;;;27.10;84.90;;;;;;4933098;29;20099;-90
2021/03/28 10:04:33;;;;;;;1.75;0.35;;;27.10;80.60;;;;;;4942213;28;20039;-90
2021/03/28 10:07:04;;;;;;;0.45;0.45;;;27.50;77.70;;;;;;4947013;28;20047;-90
2021/03/28 10:09:38;;;;;;;1.38;0.50;;;28.10;76.10;;;;;;4957899;28;20035;-90
2021/03/28 10:12:24;;;;;;;0.20;0.10;;;27.90;72.60;;;;;;4933629;28;20138;-89
2021/03/28 10:14:59;;;;;;;0.10;0.10;;;30.40;70.50;;;;;;4955929;28;20031;-90
2021/03/28 10:17:53;;;;;;;0.73;0.63;;;29.30;74.40;;;;;;4951753;28;20130;-90
2021/03/28 10:20:40;;;;;;;2.80;1.95;;;26.20;78.20;;;;;;4955309;28;20447;-90
2021/03/28 10:23:30;;;;;;;0.10;0.10;;;25.80;76.80;;;;;;4930718;28;20027;-90
2021/03/28 10:26:04;;;;;;;0.05;0.05;;;28.30;74.70;;;;;;4934595;28;20583;-90
2021/03/28 10:28:32;;;;;;;6.88;1.60;;;28.40;71.70;;;;;;4933664;29;20023;-91
2021/03/28 10:31:22;;;;;;;0.10;0.10;;;29.10;74.20;;;;;;4934994;28;20106;-92
2021/03/28 10:33:51;;;;;;;0.43;0.43;;;28.40;75.90;;;;;;4996447;28;20064;-92
2021/03/28 10:36:23;;;;;;;0.08;0.08;;;27.80;74.70;;;;;;4990276;28;20027;-90
2021/03/28 10:39:12;;;;;;;0.20;0.20;;;29.20;71.50;;;;;;4988946;28;20034;-89
2021/03/28 10:41:50;;;;;;;0.10;0.10;;;28.90;66.90;;;;;;4973814;28;20723;-89
2021/03/28 10:44:22;;;;;;;0.47;0.47;;;26.60;80.20;;;;;;4986747;28;20030;-90
2021/03/28 10:46:57;;;;;;;0.00;0.00;;;26.50;78.30;;;;;;4988989;28;20129;-90
2021/03/28 10:49:45;;;;;;;0.00;0.00;;;27.80;74.20;;;;;;4991813;28;20030;-90
2021/03/28 10:52:26;;;;;;;0.30;0.20;;;30.60;66.20;;;;;;4979911;28;20018;-90
2021/03/28 10:55:21;;;;;;;3.92;1.05;;;27.10;72.10;;;;;;4979394;28;20478;-90
2021/03/28 10:58:05;;;;;;;0.08;0.08;;;28.30;72.30;;;;;;4989092;28;20042;-91
2021/03/28 11:00:49;;;;;;;2.97;1.23;;;28.90;67.90;;;;;;4980932;28;20030;-90
2021/03/28 11:03:51;;;;;;;0.10;0.10;;;30.20;63.90;;;;;;4980462;28;20376;-89
2021/03/28 11:07:14;;;;;;;0.15;0.15;;;27.20;68.50;;;;;;4996719;28;20103;-90
2021/03/28 11:10:17;;;;;;;0.03;0.03;;;27.60;69.00;;;;;;4945648;29;20039;-90
2021/03/28 11:13:12;;;;;;;0.15;0.15;;;26.80;72.60;;;;;;4882310;29;20036;-89
2021/03/28 11:15:57;;;;;;;0.45;0.35;;;26.70;71.40;;;;;;4827647;29;20053;-89
2021/03/28 11:18:33;;;;;;;0.00;0.00;;;25.60;70.30;;;;;;4817915;29;20587;-89
2021/03/28 11:20:59;;;;;;;0.10;0.10;;;25.10;83.30;;;;;;4816092;29;20034;-90
2021/03/28 11:23:40;;;;;;;2.70;0.97;;;22.50;74.40;;;;;;4815968;29;20890;-90
2021/03/28 11:26:38;;;;;;;0.75;0.75;;;27.00;70.70;;;;;;4810041;29;20066;-91
2021/03/28 11:29:27;;;;;;;0.30;0.13;;;24.20;79.50;;;;;;4821580;29;20137;-91
2021/03/28 11:32:21;;;;;;;0.00;0.00;;;25.70;71.20;;;;;;4813776;29;20117;-90
2021/03/28 11:35:06;;;;;;;0.10;0.10;;;26.50;71.40;;;;;;4812317;29;20078;-90
2021/03/28 11:37:49;;;;;;;0.70;0.63;;;26.30;68.90;;;;;;4815167;29;20084;-91
2021/03/28 11:40:18;;;;;;;0.10;0.10;;;22.90;74.60;;;;;;4820085;29;20034;-89
2021/03/28 11:43:02;;;;;;;0.52;0.52;;;19.10;80.20;;;;;;4821498;29;20645;-90
2021/03/28 11:45:50;;;;;;;0.10;0.10;;;17.70;84.20;;;;;;4836243;29;20128;-91
2021/03/28 11:48:24;;;;;;;0.13;0.13;;;17.00;85.20;;;;;;4928900;29;20131;-90
2021/03/28 11:50:51;;;;;;;0.28;0.28;;;17.00;87.50;;;;;;4920540;29;20115;-90
2021/03/28 11:53:23;;;;;;;0.00;0.00;;;17.30;88.50;;;;;;4968129;28;20042;-92
2021/03/28 11:56:00;;;;;;;0.00;0.00;;;17.60;86.20;;;;;;4987257;28;20030;-90
2021/03/28 11:58:32;;;;;;;4.22;1.00;;;17.70;86.70;;;;;;4991421;28;20145;-92
2021/03/28 12:00:59;;;;;;;0.20;0.20;;;17.30;87.40;;;;;;4988808;28;20026;-91
2021/03/28 12:03:37;;;;;;;0.50;0.50;;;16.80;88.40;;;;;;4999102;28;20676;-91
2021/03/28 12:06:17;;;;;;;0.88;0.30;;;16.80;89.60;;;;;;4996631;28;20407;-90
2021/03/28 12:08:46;;;;;;;0.15;0.15;;;17.50;87.90;;;;;;4984274;28;20042;-89
2021/03/28 12:11:50;;;;;;;0.20;0.20;;;16.70;89.40;;;;;;4992289;28;20026;-89
2021/03/28 12:14:32;;;;;;;0.00;0.00;;;16.80;89.10;;;;;;4984996;28;20041;-89
2021/03/28 12:17:10;;;;;;;0.30;0.30;;;16.80;89.90;;;;;;4988674;28;20069;-88
2021/03/28 12:20:01;;;;;;;0.10;0.10;;;16.50;88.10;;;;;;4989621;28;20626;-88
2021/03/28 12:22:38;;;;;;;0.10;0.10;;;16.60;89.30;;;;;;4981431;28;20027;-88
2021/03/28 12:25:13;;;;;;;0.90;0.65;;;16.60;90.30;;;;;;5003506;28;20034;-90
2021/03/28 12:28:16;;;;;;;0.10;0.10;;;16.50;90.10;;;;;;5472894;23;21914;-82
2021/03/28 12:30:43;;;;;;;0.10;0.10;;;16.40;89.30;;;;;;4968622;28;20047;-80
2021/03/28 12:33:54;;;;;;;0.10;0.10;;;16.90;89.00;;;;;;4965695;28;20035;-81
2021/03/28 12:36:23;;;;;;;0.05;0.05;;;16.60;89.90;;;;;;4974383;28;20471;-80
2021/03/28 12:38:52;;;;;;;0.10;0.10;;;16.80;90.40;;;;;;4961186;28;20498;-81
2021/03/28 12:41:33;;;;;;;1.75;0.77;;;16.70;88.90;;;;;;4960457;28;20105;-81
2021/03/28 12:44:18;;;;;;;0.10;0.10;;;16.50;89.00;;;;;;4968687;28;20069;-81
2021/03/28 12:46:49;;;;;;;0.10;0.10;;;16.70;89.30;;;;;;4970576;28;20470;-81
2021/03/28 12:49:26;;;;;;;0.05;0.05;;;17.00;90.10;;;;;;4970324;28;20091;-81
2021/03/28 12:52:13;;;;;;;0.10;0.10;;;17.10;89.90;;;;;;4970635;28;20019;-80
2021/03/28 12:54:51;;;;;;;0.10;0.10;;;17.20;89.40;;;;;;4970820;28;20034;-81
2021/03/28 12:57:35;;;;;;;0.10;0.10;;;16.80;88.60;;;;;;4956106;28;20038;-81
2021/03/28 13:00:19;;;;;;;1.75;0.85;;;16.60;88.80;;;;;;4971039;28;20082;-80
2021/03/28 13:02:47;;;;;;;0.50;0.50;;;16.50;95.30;;;;;;4970672;28;20031;-81
2021/03/28 13:05:18;;;;;;;0.25;0.20;;;16.80;89.10;;;;;;4969322;28;20739;-80
2021/03/28 13:07:47;;;;;;;0.10;0.10;;;16.80;89.30;;;;;;4970749;28;20022;-81
2021/03/28 13:10:29;;;;;;;0.10;0.10;;;16.60;88.50;;;;;;4970642;28;20426;-81
2021/03/28 13:13:16;;;;;;;0.52;0.52;;;16.80;89.70;;;;;;4970781;28;20761;-81
2021/03/28 13:15:51;;;;;;;0.10;0.10;;;16.80;89.00;;;;;;4970380;28;20033;-81
2021/03/28 13:18:38;;;;;;;0.10;0.10;;;16.90;89.60;;;;;;4970576;28;20019;-81
2021/03/28 13:21:36;;;;;;;0.40;0.40;;;17.10;90.40;;;;;;4969705;28;20117;-81
2021/03/28 13:24:17;;;;;;;0.25;0.25;;;16.80;89.30;;;;;;4970110;28;20030;-80
2021/03/28 13:27:02;;;;;;;0.10;0.10;;;16.70;88.90;;;;;;4970237;28;20105;-81
2021/03/28 13:29:36;;;;;;;0.20;0.20;;;16.80;86.70;;;;;;4971737;28;20038;-81
2021/03/28 13:32:21;;;;;;;0.47;0.43;;;16.60;86.50;;;;;;4978440;28;20022;-81
2021/03/28 13:34:49;;;;;;;0.00;0.00;;;16.50;85.80;;;;;;4957414;28;20382;-80
2021/03/28 13:37:34;;;;;;;0.00;0.00;;;16.70;86.30;;;;;;4968696;28;20030;-80
2021/03/28 13:40:03;;;;;;;0.10;0.10;;;16.90;87.90;;;;;;4957029;28;20022;-80
2021/03/28 13:42:55;;;;;;;0.20;0.20;;;16.70;85.70;;;;;;4969718;28;20193;-81
2021/03/28 13:45:29;;;;;;;0.00;0.00;;;16.70;88.00;;;;;;4964516;28;20042;-81
2021/03/28 13:47:58;;;;;;;0.10;0.10;;;16.70;88.10;;;;;;4969929;28;20034;-80
2021/03/28 13:50:48;;;;;;;0.10;0.10;;;16.60;88.30;;;;;;4970104;28;20018;-80
2021/03/28 13:53:17;;;;;;;0.00;0.00;;;16.80;88.40;;;;;;4969791;28;20057;-81
2021/03/28 13:55:45;;;;;;;0.10;0.10;;;16.50;87.70;;;;;;4969622;28;20508;-80
2021/03/28 13:58:35;;;;;;;0.10;0.10;;;16.50;86.60;;;;;;4969778;28;20049;-80
2021/03/28 14:01:07;;;;;;;0.10;0.10;;;16.60;86.90;;;;;;4969721;28;20027;-80
2021/03/28 14:03:38;;;;;;;0.10;0.10;;;16.70;86.40;;;;;;4969447;28;20025;-80
2021/03/28 14:06:32;;;;;;;0.22;0.22;;;16.70;87.10;;;;;;4969437;28;20031;-80
2021/03/28 14:09:18;;;;;;;0.32;0.32;;;16.60;87.20;;;;;;4967562;28;20077;-80
2021/03/28 14:11:46;;;;;;;0.00;0.00;;;16.50;86.30;;;;;;4957172;28;20025;-80
2021/03/28 14:14:41;;;;;;;0.55;0.55;;;16.30;86.00;;;;;;4969359;28;20769;-80
2021/03/28 14:17:21;;;;;;;0.00;0.00;;;16.50;86.90;;;;;;4969308;28;20065;-80
2021/03/28 14:19:49;;;;;;;0.03;0.03;;;16.40;86.50;;;;;;4969057;28;20027;-80
2021/03/28 14:22:35;;;;;;;0.00;0.00;;;16.50;85.90;;;;;;4969180;28;20018;-80
2021/03/28 14:25:03;;;;;;;0.10;0.10;;;16.60;86.50;;;;;;4969022;28;20073;-80